sensor_id;sensor_type;location;lat;lon;timestamp;P1;durP1;ratioP1;P2;durP2;ratioP2
16029;SDS011;34770;49.272;11.070;2023-02-24T00:00:55;22.42;;;12.80;;
16029;SDS011;34770;49.272;11.070;2023-02-24T00:03:20;17.65;;;12.45;;
16029;SDS011;34770;49.272;11.070;2023-02-24T00:05:46;17.55;;;12.68;;
16029;SDS011;34770;49.272;11.070;2023-02-24T00:08:14;19.73;;;12.73;;
16029;SDS011;34770;49.272;11.070;2023-02-24T00:10:40;15.90;;;11.75;;
16029;SDS011;34770;49.272;11.070;2023-02-24T00:13:05;15.68;;;11.10;;
16029;SDS011;34770;49.272;11.070;2023-02-24T00:15:31;18.35;;;11.43;;
16029;SDS011;34770;49.272;11.070;2023-02-24T00:17:57;18.63;;;11.10;;
16029;SDS011;34770;49.272;11.070;2023-02-24T00:20:22;17.52;;;10.85;;
16029;SDS011;34770;49.272;11.070;2023-02-24T00:22:48;19.70;;;11.85;;
16029;SDS011;34770;49.272;11.070;2023-02-24T00:25:14;18.50;;;12.13;;
16029;SDS011;34770;49.272;11.070;2023-02-24T00:27:39;18.95;;;10.63;;
16029;SDS011;34770;49.272;11.070;2023-02-24T00:30:06;15.82;;;11.23;;
16029;SDS011;34770;49.272;11.070;2023-02-24T00:32:35;16.15;;;10.70;;
16029;SDS011;34770;49.272;11.070;2023-02-24T00:35:00;18.58;;;10.85;;
16029;SDS011;34770;49.272;11.070;2023-02-24T00:37:25;14.68;;;10.32;;
16029;SDS011;34770;49.272;11.070;2023-02-24T00:39:51;14.60;;;9.95;;
16029;SDS011;34770;49.272;11.070;2023-02-24T00:42:21;14.82;;;11.02;;
16029;SDS011;34770;49.272;11.070;2023-02-24T00:44:47;13.48;;;10.50;;
16029;SDS011;34770;49.272;11.070;2023-02-24T00:47:13;15.70;;;10.18;;
16029;SDS011;34770;49.272;11.070;2023-02-24T00:49:42;16.30;;;10.25;;
16029;SDS011;34770;49.272;11.070;2023-02-24T00:52:11;17.45;;;11.60;;
16029;SDS011;34770;49.272;11.070;2023-02-24T00:54:42;15.13;;;10.93;;
16029;SDS011;34770;49.272;11.070;2023-02-24T00:57:08;12.20;;;9.70;;
16029;SDS011;34770;49.272;11.070;2023-02-24T00:59:35;15.98;;;10.75;;
16029;SDS011;34770;49.272;11.070;2023-02-24T01:02:00;15.52;;;10.65;;
16029;SDS011;34770;49.272;11.070;2023-02-24T01:04:27;15.85;;;10.93;;
16029;SDS011;34770;49.272;11.070;2023-02-24T01:06:53;13.27;;;10.13;;
16029;SDS011;34770;49.272;11.070;2023-02-24T01:09:27;14.52;;;11.13;;
16029;SDS011;34770;49.272;11.070;2023-02-24T01:11:54;14.65;;;10.20;;
16029;SDS011;34770;49.272;11.070;2023-02-24T01:14:43;15.68;;;10.90;;
16029;SDS011;34770;49.272;11.070;2023-02-24T01:17:12;15.27;;;10.20;;
16029;SDS011;34770;49.272;11.070;2023-02-24T01:19:38;17.05;;;10.10;;
16029;SDS011;34770;49.272;11.070;2023-02-24T01:22:06;14.07;;;9.60;;
16029;SDS011;34770;49.272;11.070;2023-02-24T01:24:35;12.25;;;9.40;;
16029;SDS011;34770;49.272;11.070;2023-02-24T01:27:02;14.48;;;10.43;;
16029;SDS011;34770;49.272;11.070;2023-02-24T01:29:29;12.38;;;10.02;;
16029;SDS011;34770;49.272;11.070;2023-02-24T01:31:54;13.32;;;9.40;;
16029;SDS011;34770;49.272;11.070;2023-02-24T01:34:23;12.90;;;9.88;;
16029;SDS011;34770;49.272;11.070;2023-02-24T01:36:50;14.18;;;9.82;;
16029;SDS011;34770;49.272;11.070;2023-02-24T01:39:15;14.40;;;10.98;;
16029;SDS011;34770;49.272;11.070;2023-02-24T01:41:42;14.18;;;10.07;;
16029;SDS011;34770;49.272;11.070;2023-02-24T01:46:42;12.95;;;10.35;;
16029;SDS011;34770;49.272;11.070;2023-02-24T01:49:10;16.70;;;10.52;;
16029;SDS011;34770;49.272;11.070;2023-02-24T01:51:44;13.73;;;9.75;;
16029;SDS011;34770;49.272;11.070;2023-02-24T01:54:14;16.73;;;11.23;;
16029;SDS011;34770;49.272;11.070;2023-02-24T01:56:43;17.15;;;10.90;;
16029;SDS011;34770;49.272;11.070;2023-02-24T01:59:13;14.10;;;9.98;;
16029;SDS011;34770;49.272;11.070;2023-02-24T02:01:40;25.10;;;10.80;;
16029;SDS011;34770;49.272;11.070;2023-02-24T02:04:10;18.75;;;10.90;;
16029;SDS011;34770;49.272;11.070;2023-02-24T02:06:41;14.65;;;10.40;;
16029;SDS011;34770;49.272;11.070;2023-02-24T02:09:07;14.95;;;11.43;;
16029;SDS011;34770;49.272;11.070;2023-02-24T02:11:33;15.23;;;10.40;;
16029;SDS011;34770;49.272;11.070;2023-02-24T02:13:59;17.65;;;10.55;;
16029;SDS011;34770;49.272;11.070;2023-02-24T02:16:39;17.00;;;10.30;;
16029;SDS011;34770;49.272;11.070;2023-02-24T02:28:03;15.20;;;10.27;;
16029;SDS011;34770;49.272;11.070;2023-02-24T02:38:52;16.13;;;10.85;;
16029;SDS011;34770;49.272;11.070;2023-02-24T02:41:23;17.35;;;11.57;;
16029;SDS011;34770;49.272;11.070;2023-02-24T02:44:16;16.17;;;11.90;;
16029;SDS011;34770;49.272;11.070;2023-02-24T02:47:00;12.30;;;9.23;;
16029;SDS011;34770;49.272;11.070;2023-02-24T02:49:39;17.42;;;11.32;;
16029;SDS011;34770;49.272;11.070;2023-02-24T02:52:11;18.95;;;10.82;;
16029;SDS011;34770;49.272;11.070;2023-02-24T02:54:48;18.73;;;11.82;;
16029;SDS011;34770;49.272;11.070;2023-02-24T02:57:24;17.75;;;12.13;;
16029;SDS011;34770;49.272;11.070;2023-02-24T03:02:46;23.38;;;14.93;;
16029;SDS011;34770;49.272;11.070;2023-02-24T03:05:15;22.85;;;14.20;;
16029;SDS011;34770;49.272;11.070;2023-02-24T03:07:47;19.73;;;13.93;;
16029;SDS011;34770;49.272;11.070;2023-02-24T03:10:25;25.50;;;15.98;;
16029;SDS011;34770;49.272;11.070;2023-02-24T03:12:54;22.98;;;15.05;;
16029;SDS011;34770;49.272;11.070;2023-02-24T03:15:23;23.90;;;16.15;;
16029;SDS011;34770;49.272;11.070;2023-02-24T03:17:52;23.25;;;14.13;;
16029;SDS011;34770;49.272;11.070;2023-02-24T03:23:12;22.60;;;13.77;;
16029;SDS011;34770;49.272;11.070;2023-02-24T03:25:47;19.23;;;14.10;;
16029;SDS011;34770;49.272;11.070;2023-02-24T03:28:26;26.33;;;15.88;;
16029;SDS011;34770;49.272;11.070;2023-02-24T03:31:05;25.98;;;15.43;;
16029;SDS011;34770;49.272;11.070;2023-02-24T03:33:47;21.25;;;14.15;;
16029;SDS011;34770;49.272;11.070;2023-02-24T03:36:24;21.25;;;13.60;;
16029;SDS011;34770;49.272;11.070;2023-02-24T03:38:50;17.27;;;12.10;;
16029;SDS011;34770;49.272;11.070;2023-02-24T03:41:16;21.73;;;13.70;;
16029;SDS011;34770;49.272;11.070;2023-02-24T03:43:43;22.05;;;12.38;;
16029;SDS011;34770;49.272;11.070;2023-02-24T03:46:15;21.90;;;13.88;;
16029;SDS011;34770;49.272;11.070;2023-02-24T03:48:46;23.40;;;13.80;;
16029;SDS011;34770;49.272;11.070;2023-02-24T03:51:19;21.85;;;11.75;;
16029;SDS011;34770;49.272;11.070;2023-02-24T04:04:17;26.10;;;15.90;;
16029;SDS011;34770;49.272;11.070;2023-02-24T04:07:04;23.23;;;15.82;;
16029;SDS011;34770;49.272;11.070;2023-02-24T04:09:39;30.40;;;15.98;;
16029;SDS011;34770;49.272;11.070;2023-02-24T04:12:22;23.60;;;14.77;;
16029;SDS011;34770;49.272;11.070;2023-02-24T04:14:54;26.50;;;15.05;;
16029;SDS011;34770;49.272;11.070;2023-02-24T04:17:54;31.38;;;17.23;;
16029;SDS011;34770;49.272;11.070;2023-02-24T04:20:22;30.05;;;17.25;;
16029;SDS011;34770;49.272;11.070;2023-02-24T04:22:55;26.75;;;16.17;;
16029;SDS011;34770;49.272;11.070;2023-02-24T04:25:26;28.73;;;16.90;;
16029;SDS011;34770;49.272;11.070;2023-02-24T04:27:52;25.10;;;16.77;;
16029;SDS011;34770;49.272;11.070;2023-02-24T04:30:21;23.35;;;15.35;;
16029;SDS011;34770;49.272;11.070;2023-02-24T04:32:49;32.33;;;19.48;;
16029;SDS011;34770;49.272;11.070;2023-02-24T04:35:15;28.73;;;17.50;;
16029;SDS011;34770;49.272;11.070;2023-02-24T04:37:45;24.77;;;14.98;;
16029;SDS011;34770;49.272;11.070;2023-02-24T04:40:11;27.65;;;17.60;;
16029;SDS011;34770;49.272;11.070;2023-02-24T04:42:42;26.02;;;16.75;;
16029;SDS011;34770;49.272;11.070;2023-02-24T04:45:16;28.38;;;17.90;;
16029;SDS011;34770;49.272;11.070;2023-02-24T04:47:47;32.50;;;17.67;;
16029;SDS011;34770;49.272;11.070;2023-02-24T04:50:15;30.80;;;18.92;;
16029;SDS011;34770;49.272;11.070;2023-02-24T04:52:48;33.33;;;18.85;;
16029;SDS011;34770;49.272;11.070;2023-02-24T04:55:14;32.40;;;19.38;;
16029;SDS011;34770;49.272;11.070;2023-02-24T04:57:41;32.22;;;18.08;;
16029;SDS011;34770;49.272;11.070;2023-02-24T05:00:10;33.15;;;18.92;;
16029;SDS011;34770;49.272;11.070;2023-02-24T05:02:44;31.88;;;18.30;;
16029;SDS011;34770;49.272;11.070;2023-02-24T05:05:12;37.63;;;21.05;;
16029;SDS011;34770;49.272;11.070;2023-02-24T05:07:38;32.97;;;19.65;;
16029;SDS011;34770;49.272;11.070;2023-02-24T05:10:04;32.30;;;19.10;;
16029;SDS011;34770;49.272;11.070;2023-02-24T05:12:30;34.47;;;19.30;;
16029;SDS011;34770;49.272;11.070;2023-02-24T05:14:56;31.02;;;17.65;;
16029;SDS011;34770;49.272;11.070;2023-02-24T05:17:25;26.75;;;18.52;;
16029;SDS011;34770;49.272;11.070;2023-02-24T05:19:51;30.05;;;19.27;;
16029;SDS011;34770;49.272;11.070;2023-02-24T05:22:35;29.42;;;19.00;;
16029;SDS011;34770;49.272;11.070;2023-02-24T05:25:00;33.85;;;19.75;;
16029;SDS011;34770;49.272;11.070;2023-02-24T05:27:27;28.85;;;18.83;;
16029;SDS011;34770;49.272;11.070;2023-02-24T05:29:53;29.38;;;17.05;;
16029;SDS011;34770;49.272;11.070;2023-02-24T05:32:20;31.48;;;18.33;;
16029;SDS011;34770;49.272;11.070;2023-02-24T05:34:46;35.17;;;20.73;;
16029;SDS011;34770;49.272;11.070;2023-02-24T05:37:12;36.05;;;19.38;;
16029;SDS011;34770;49.272;11.070;2023-02-24T05:39:40;34.30;;;19.50;;
16029;SDS011;34770;49.272;11.070;2023-02-24T05:42:06;26.95;;;18.33;;
16029;SDS011;34770;49.272;11.070;2023-02-24T05:44:32;32.83;;;18.30;;
16029;SDS011;34770;49.272;11.070;2023-02-24T05:46:59;33.92;;;18.23;;
16029;SDS011;34770;49.272;11.070;2023-02-24T05:49:27;36.22;;;18.73;;
16029;SDS011;34770;49.272;11.070;2023-02-24T05:51:57;30.40;;;18.40;;
16029;SDS011;34770;49.272;11.070;2023-02-24T05:54:32;30.85;;;17.35;;
16029;SDS011;34770;49.272;11.070;2023-02-24T05:57:10;32.00;;;19.10;;
16029;SDS011;34770;49.272;11.070;2023-02-24T05:59:41;34.08;;;20.92;;
16029;SDS011;34770;49.272;11.070;2023-02-24T06:02:09;37.95;;;22.02;;
16029;SDS011;34770;49.272;11.070;2023-02-24T06:04:37;42.00;;;22.38;;
16029;SDS011;34770;49.272;11.070;2023-02-24T06:07:19;40.95;;;22.65;;
16029;SDS011;34770;49.272;11.070;2023-02-24T06:09:49;37.22;;;21.23;;
16029;SDS011;34770;49.272;11.070;2023-02-24T06:12:18;35.92;;;21.52;;
16029;SDS011;34770;49.272;11.070;2023-02-24T06:14:46;30.45;;;19.63;;
16029;SDS011;34770;49.272;11.070;2023-02-24T06:17:12;34.92;;;18.88;;
16029;SDS011;34770;49.272;11.070;2023-02-24T06:19:41;38.55;;;20.65;;
16029;SDS011;34770;49.272;11.070;2023-02-24T06:22:17;33.60;;;20.75;;
16029;SDS011;34770;49.272;11.070;2023-02-24T06:24:44;37.72;;;20.88;;
16029;SDS011;34770;49.272;11.070;2023-02-24T06:27:13;31.73;;;19.52;;
16029;SDS011;34770;49.272;11.070;2023-02-24T06:29:47;36.63;;;20.95;;
16029;SDS011;34770;49.272;11.070;2023-02-24T06:32:14;37.70;;;22.05;;
16029;SDS011;34770;49.272;11.070;2023-02-24T06:34:41;42.47;;;23.77;;
16029;SDS011;34770;49.272;11.070;2023-02-24T06:37:07;40.63;;;21.25;;
16029;SDS011;34770;49.272;11.070;2023-02-24T06:39:36;33.63;;;20.23;;
16029;SDS011;34770;49.272;11.070;2023-02-24T06:42:03;33.90;;;19.80;;
16029;SDS011;34770;49.272;11.070;2023-02-24T06:44:30;40.63;;;22.45;;
16029;SDS011;34770;49.272;11.070;2023-02-24T06:46:56;38.88;;;22.63;;
16029;SDS011;34770;49.272;11.070;2023-02-24T06:49:25;36.10;;;20.42;;
16029;SDS011;34770;49.272;11.070;2023-02-24T06:51:52;38.67;;;23.05;;
16029;SDS011;34770;49.272;11.070;2023-02-24T06:54:21;38.17;;;22.15;;
16029;SDS011;34770;49.272;11.070;2023-02-24T06:56:49;38.55;;;22.60;;
16029;SDS011;34770;49.272;11.070;2023-02-24T06:59:15;40.42;;;23.88;;
16029;SDS011;34770;49.272;11.070;2023-02-24T07:01:48;36.60;;;21.58;;
16029;SDS011;34770;49.272;11.070;2023-02-24T07:04:14;38.63;;;22.83;;
16029;SDS011;34770;49.272;11.070;2023-02-24T07:06:51;40.53;;;21.85;;
16029;SDS011;34770;49.272;11.070;2023-02-24T07:09:21;37.97;;;20.92;;
16029;SDS011;34770;49.272;11.070;2023-02-24T07:11:49;43.08;;;21.85;;
16029;SDS011;34770;49.272;11.070;2023-02-24T07:14:18;44.42;;;24.02;;
16029;SDS011;34770;49.272;11.070;2023-02-24T07:16:45;42.58;;;23.40;;
16029;SDS011;34770;49.272;11.070;2023-02-24T07:19:12;44.58;;;24.27;;
16029;SDS011;34770;49.272;11.070;2023-02-24T07:21:40;42.42;;;24.20;;
16029;SDS011;34770;49.272;11.070;2023-02-24T07:24:14;45.20;;;24.73;;
16029;SDS011;34770;49.272;11.070;2023-02-24T07:26:52;46.13;;;23.85;;
16029;SDS011;34770;49.272;11.070;2023-02-24T07:29:20;40.03;;;23.38;;
16029;SDS011;34770;49.272;11.070;2023-02-24T07:31:47;45.13;;;25.38;;
16029;SDS011;34770;49.272;11.070;2023-02-24T07:34:13;41.63;;;23.48;;
16029;SDS011;34770;49.272;11.070;2023-02-24T07:36:39;38.55;;;23.02;;
16029;SDS011;34770;49.272;11.070;2023-02-24T07:39:13;40.50;;;22.88;;
16029;SDS011;34770;49.272;11.070;2023-02-24T07:41:40;45.70;;;23.88;;
16029;SDS011;34770;49.272;11.070;2023-02-24T07:44:10;42.05;;;23.52;;
16029;SDS011;34770;49.272;11.070;2023-02-24T07:46:38;48.97;;;26.17;;
16029;SDS011;34770;49.272;11.070;2023-02-24T07:49:04;43.58;;;24.63;;
16029;SDS011;34770;49.272;11.070;2023-02-24T07:51:33;42.90;;;24.45;;
16029;SDS011;34770;49.272;11.070;2023-02-24T07:54:00;48.13;;;25.40;;
16029;SDS011;34770;49.272;11.070;2023-02-24T07:56:27;40.33;;;23.38;;
16029;SDS011;34770;49.272;11.070;2023-02-24T07:59:02;46.45;;;25.88;;
16029;SDS011;34770;49.272;11.070;2023-02-24T08:01:33;50.83;;;26.15;;
16029;SDS011;34770;49.272;11.070;2023-02-24T08:04:13;42.58;;;23.33;;
16029;SDS011;34770;49.272;11.070;2023-02-24T08:06:41;45.13;;;27.55;;
16029;SDS011;34770;49.272;11.070;2023-02-24T08:09:17;46.20;;;23.33;;
16029;SDS011;34770;49.272;11.070;2023-02-24T08:12:06;40.85;;;24.15;;
16029;SDS011;34770;49.272;11.070;2023-02-24T08:14:32;44.67;;;25.38;;
16029;SDS011;34770;49.272;11.070;2023-02-24T08:16:59;38.40;;;23.90;;
16029;SDS011;34770;49.272;11.070;2023-02-24T08:19:30;37.35;;;22.27;;
16029;SDS011;34770;49.272;11.070;2023-02-24T08:22:11;41.28;;;23.45;;
16029;SDS011;34770;49.272;11.070;2023-02-24T08:24:47;42.65;;;21.80;;
16029;SDS011;34770;49.272;11.070;2023-02-24T08:27:15;42.92;;;23.55;;
16029;SDS011;34770;49.272;11.070;2023-02-24T08:29:46;46.22;;;23.35;;
16029;SDS011;34770;49.272;11.070;2023-02-24T08:35:00;44.15;;;25.05;;
16029;SDS011;34770;49.272;11.070;2023-02-24T08:37:46;45.38;;;26.00;;
16029;SDS011;34770;49.272;11.070;2023-02-24T08:40:23;46.90;;;28.60;;
16029;SDS011;34770;49.272;11.070;2023-02-24T08:43:01;37.97;;;23.92;;
16029;SDS011;34770;49.272;11.070;2023-02-24T08:45:41;46.10;;;25.40;;
16029;SDS011;34770;49.272;11.070;2023-02-24T08:48:10;46.97;;;26.38;;
16029;SDS011;34770;49.272;11.070;2023-02-24T08:50:50;41.90;;;23.92;;
16029;SDS011;34770;49.272;11.070;2023-02-24T08:53:19;42.63;;;25.60;;
16029;SDS011;34770;49.272;11.070;2023-02-24T08:55:45;44.78;;;25.77;;
16029;SDS011;34770;49.272;11.070;2023-02-24T08:58:16;46.90;;;28.42;;
16029;SDS011;34770;49.272;11.070;2023-02-24T09:00:45;43.42;;;22.20;;
16029;SDS011;34770;49.272;11.070;2023-02-24T09:03:17;43.08;;;24.67;;
16029;SDS011;34770;49.272;11.070;2023-02-24T09:06:06;48.10;;;27.35;;
16029;SDS011;34770;49.272;11.070;2023-02-24T09:08:36;40.67;;;24.15;;
16029;SDS011;34770;49.272;11.070;2023-02-24T09:11:05;43.67;;;24.17;;
16029;SDS011;34770;49.272;11.070;2023-02-24T09:13:38;40.35;;;23.95;;
16029;SDS011;34770;49.272;11.070;2023-02-24T09:16:22;57.55;;;30.90;;
16029;SDS011;34770;49.272;11.070;2023-02-24T09:18:48;45.15;;;25.63;;
16029;SDS011;34770;49.272;11.070;2023-02-24T09:21:36;40.85;;;25.58;;
16029;SDS011;34770;49.272;11.070;2023-02-24T09:24:14;40.55;;;21.92;;
16029;SDS011;34770;49.272;11.070;2023-02-24T09:26:51;41.05;;;23.15;;
16029;SDS011;34770;49.272;11.070;2023-02-24T09:29:22;38.63;;;23.25;;
16029;SDS011;34770;49.272;11.070;2023-02-24T09:31:58;42.55;;;23.42;;
16029;SDS011;34770;49.272;11.070;2023-02-24T09:34:39;43.42;;;23.48;;
16029;SDS011;34770;49.272;11.070;2023-02-24T09:37:08;39.97;;;23.33;;
16029;SDS011;34770;49.272;11.070;2023-02-24T09:39:51;35.70;;;21.65;;
16029;SDS011;34770;49.272;11.070;2023-02-24T09:45:00;41.17;;;23.15;;
16029;SDS011;34770;49.272;11.070;2023-02-24T09:52:56;41.30;;;20.08;;
16029;SDS011;34770;49.272;11.070;2023-02-24T09:55:51;37.95;;;20.95;;
16029;SDS011;34770;49.272;11.070;2023-02-24T09:58:34;41.75;;;21.77;;
16029;SDS011;34770;49.272;11.070;2023-02-24T10:01:28;42.08;;;21.40;;
16029;SDS011;34770;49.272;11.070;2023-02-24T10:04:19;38.35;;;20.90;;
16029;SDS011;34770;49.272;11.070;2023-02-24T10:06:55;43.03;;;22.75;;
16029;SDS011;34770;49.272;11.070;2023-02-24T10:12:08;47.35;;;24.67;;
16029;SDS011;34770;49.272;11.070;2023-02-24T10:14:40;41.78;;;22.10;;
16029;SDS011;34770;49.272;11.070;2023-02-24T10:17:49;43.33;;;23.00;;
16029;SDS011;34770;49.272;11.070;2023-02-24T10:20:20;40.38;;;20.67;;
16029;SDS011;34770;49.272;11.070;2023-02-24T10:23:11;40.75;;;21.27;;
16029;SDS011;34770;49.272;11.070;2023-02-24T10:25:54;43.05;;;20.00;;
16029;SDS011;34770;49.272;11.070;2023-02-24T10:28:41;38.85;;;21.05;;
16029;SDS011;34770;49.272;11.070;2023-02-24T10:31:40;46.60;;;22.73;;
16029;SDS011;34770;49.272;11.070;2023-02-24T10:34:22;37.95;;;20.52;;
16029;SDS011;34770;49.272;11.070;2023-02-24T10:37:17;40.42;;;20.92;;
16029;SDS011;34770;49.272;11.070;2023-02-24T10:39:47;36.08;;;19.77;;
16029;SDS011;34770;49.272;11.070;2023-02-24T10:42:30;39.80;;;19.98;;
16029;SDS011;34770;49.272;11.070;2023-02-24T10:45:29;41.92;;;20.40;;
16029;SDS011;34770;49.272;11.070;2023-02-24T10:47:55;41.05;;;21.02;;
16029;SDS011;34770;49.272;11.070;2023-02-24T10:52:54;39.72;;;21.75;;
16029;SDS011;34770;49.272;11.070;2023-02-24T10:58:03;43.00;;;20.77;;
16029;SDS011;34770;49.272;11.070;2023-02-24T11:03:31;44.80;;;22.40;;
16029;SDS011;34770;49.272;11.070;2023-02-24T11:06:24;40.20;;;22.60;;
16029;SDS011;34770;49.272;11.070;2023-02-24T11:15:03;37.80;;;20.45;;
16029;SDS011;34770;49.272;11.070;2023-02-24T11:17:57;39.45;;;19.25;;
16029;SDS011;34770;49.272;11.070;2023-02-24T11:20:41;39.88;;;21.48;;
16029;SDS011;34770;49.272;11.070;2023-02-24T11:23:16;41.63;;;21.77;;
16029;SDS011;34770;49.272;11.070;2023-02-24T11:25:47;37.17;;;19.80;;
16029;SDS011;34770;49.272;11.070;2023-02-24T11:31:08;42.03;;;20.95;;
16029;SDS011;34770;49.272;11.070;2023-02-24T11:36:54;43.35;;;22.20;;
16029;SDS011;34770;49.272;11.070;2023-02-24T11:42:18;39.33;;;21.25;;
16029;SDS011;34770;49.272;11.070;2023-02-24T11:44:55;40.20;;;22.08;;
16029;SDS011;34770;49.272;11.070;2023-02-24T11:47:29;41.78;;;23.15;;
16029;SDS011;34770;49.272;11.070;2023-02-24T11:52:48;35.70;;;21.00;;
16029;SDS011;34770;49.272;11.070;2023-02-24T11:55:27;43.20;;;21.17;;
16029;SDS011;34770;49.272;11.070;2023-02-24T11:57:59;39.83;;;21.63;;
16029;SDS011;34770;49.272;11.070;2023-02-24T12:00:30;42.78;;;23.33;;
16029;SDS011;34770;49.272;11.070;2023-02-24T12:05:47;34.33;;;19.67;;
16029;SDS011;34770;49.272;11.070;2023-02-24T12:10:59;36.40;;;20.08;;
16029;SDS011;34770;49.272;11.070;2023-02-24T12:13:33;37.47;;;21.98;;
16029;SDS011;34770;49.272;11.070;2023-02-24T12:16:14;36.63;;;19.73;;
16029;SDS011;34770;49.272;11.070;2023-02-24T12:18:54;36.70;;;20.10;;
16029;SDS011;34770;49.272;11.070;2023-02-24T12:21:28;35.33;;;20.83;;
16029;SDS011;34770;49.272;11.070;2023-02-24T12:23:59;35.45;;;18.83;;
16029;SDS011;34770;49.272;11.070;2023-02-24T12:26:39;36.42;;;17.88;;
16029;SDS011;34770;49.272;11.070;2023-02-24T12:40:19;33.38;;;17.25;;
16029;SDS011;34770;49.272;11.070;2023-02-24T12:57:10;25.08;;;12.27;;
16029;SDS011;34770;49.272;11.070;2023-02-24T12:59:45;16.67;;;8.55;;
16029;SDS011;34770;49.272;11.070;2023-02-24T13:02:28;20.50;;;12.93;;
16029;SDS011;34770;49.272;11.070;2023-02-24T13:05:26;23.92;;;14.23;;
16029;SDS011;34770;49.272;11.070;2023-02-24T13:11:04;24.75;;;13.13;;
16029;SDS011;34770;49.272;11.070;2023-02-24T13:16:13;23.08;;;13.93;;
16029;SDS011;34770;49.272;11.070;2023-02-24T13:18:39;21.73;;;12.70;;
16029;SDS011;34770;49.272;11.070;2023-02-24T13:23:33;23.75;;;12.82;;
16029;SDS011;34770;49.272;11.070;2023-02-24T13:25:59;22.38;;;12.88;;
16029;SDS011;34770;49.272;11.070;2023-02-24T13:28:42;24.17;;;13.15;;
16029;SDS011;34770;49.272;11.070;2023-02-24T13:31:09;24.33;;;11.75;;
16029;SDS011;34770;49.272;11.070;2023-02-24T13:33:37;21.65;;;12.88;;
16029;SDS011;34770;49.272;11.070;2023-02-24T13:36:13;28.25;;;14.07;;
16029;SDS011;34770;49.272;11.070;2023-02-24T13:38:47;22.48;;;14.23;;
16029;SDS011;34770;49.272;11.070;2023-02-24T13:44:01;21.67;;;13.27;;
16029;SDS011;34770;49.272;11.070;2023-02-24T13:52:32;21.88;;;13.65;;
16029;SDS011;34770;49.272;11.070;2023-02-24T14:03:21;24.65;;;13.27;;
16029;SDS011;34770;49.272;11.070;2023-02-24T14:05:49;25.17;;;13.15;;
16029;SDS011;34770;49.272;11.070;2023-02-24T14:08:22;23.83;;;12.55;;
16029;SDS011;34770;49.272;11.070;2023-02-24T14:10:59;21.48;;;12.20;;
16029;SDS011;34770;49.272;11.070;2023-02-24T14:13:28;21.95;;;12.02;;
16029;SDS011;34770;49.272;11.070;2023-02-24T14:15:58;23.45;;;12.32;;
16029;SDS011;34770;49.272;11.070;2023-02-24T14:18:28;25.27;;;13.70;;
16029;SDS011;34770;49.272;11.070;2023-02-24T14:20:56;21.85;;;11.95;;
16029;SDS011;34770;49.272;11.070;2023-02-24T14:23:23;24.73;;;13.10;;
16029;SDS011;34770;49.272;11.070;2023-02-24T14:26:14;25.45;;;14.70;;
16029;SDS011;34770;49.272;11.070;2023-02-24T14:28:42;20.95;;;13.25;;
16029;SDS011;34770;49.272;11.070;2023-02-24T14:31:14;26.67;;;13.70;;
16029;SDS011;34770;49.272;11.070;2023-02-24T14:33:45;18.52;;;11.15;;
16029;SDS011;34770;49.272;11.070;2023-02-24T14:36:18;21.80;;;12.10;;
16029;SDS011;34770;49.272;11.070;2023-02-24T14:41:25;23.10;;;12.35;;
16029;SDS011;34770;49.272;11.070;2023-02-24T14:43:51;29.60;;;14.93;;
16029;SDS011;34770;49.272;11.070;2023-02-24T14:46:18;21.65;;;12.23;;
16029;SDS011;34770;49.272;11.070;2023-02-24T14:48:44;22.85;;;13.98;;
16029;SDS011;34770;49.272;11.070;2023-02-24T14:51:30;20.55;;;11.80;;
16029;SDS011;34770;49.272;11.070;2023-02-24T14:54:02;27.63;;;12.13;;
16029;SDS011;34770;49.272;11.070;2023-02-24T14:56:31;15.95;;;9.98;;
16029;SDS011;34770;49.272;11.070;2023-02-24T14:59:11;13.18;;;7.85;;
16029;SDS011;34770;49.272;11.070;2023-02-24T15:01:49;15.95;;;9.52;;
16029;SDS011;34770;49.272;11.070;2023-02-24T15:04:32;13.85;;;8.45;;
16029;SDS011;34770;49.272;11.070;2023-02-24T15:07:02;19.42;;;8.38;;
16029;SDS011;34770;49.272;11.070;2023-02-24T15:09:39;19.00;;;9.98;;
16029;SDS011;34770;49.272;11.070;2023-02-24T15:12:07;19.73;;;8.65;;
16029;SDS011;34770;49.272;11.070;2023-02-24T15:14:49;15.32;;;8.77;;
16029;SDS011;34770;49.272;11.070;2023-02-24T15:17:18;15.00;;;8.70;;
16029;SDS011;34770;49.272;11.070;2023-02-24T15:19:46;16.38;;;8.73;;
16029;SDS011;34770;49.272;11.070;2023-02-24T15:22:19;14.20;;;7.38;;
16029;SDS011;34770;49.272;11.070;2023-02-24T15:25:06;15.75;;;9.10;;
16029;SDS011;34770;49.272;11.070;2023-02-24T15:27:50;16.23;;;9.05;;
16029;SDS011;34770;49.272;11.070;2023-02-24T15:35:31;18.40;;;9.77;;
16029;SDS011;34770;49.272;11.070;2023-02-24T15:37:59;13.95;;;8.77;;
16029;SDS011;34770;49.272;11.070;2023-02-24T15:40:26;22.10;;;8.23;;
16029;SDS011;34770;49.272;11.070;2023-02-24T15:45:31;13.90;;;7.72;;
16029;SDS011;34770;49.272;11.070;2023-02-24T15:48:02;17.30;;;8.40;;
16029;SDS011;34770;49.272;11.070;2023-02-24T15:50:42;16.58;;;8.85;;
16029;SDS011;34770;49.272;11.070;2023-02-24T15:53:08;16.25;;;11.02;;
16029;SDS011;34770;49.272;11.070;2023-02-24T15:55:37;26.42;;;14.63;;
16029;SDS011;34770;49.272;11.070;2023-02-24T15:58:04;17.23;;;9.90;;
16029;SDS011;34770;49.272;11.070;2023-02-24T16:00:30;17.13;;;9.52;;
16029;SDS011;34770;49.272;11.070;2023-02-24T16:02:56;17.83;;;9.77;;
16029;SDS011;34770;49.272;11.070;2023-02-24T16:05:22;19.17;;;9.90;;
16029;SDS011;34770;49.272;11.070;2023-02-24T16:07:49;17.17;;;9.00;;
16029;SDS011;34770;49.272;11.070;2023-02-24T16:10:32;17.98;;;9.73;;
16029;SDS011;34770;49.272;11.070;2023-02-24T16:12:58;20.58;;;10.98;;
16029;SDS011;34770;49.272;11.070;2023-02-24T16:15:27;20.02;;;11.05;;
16029;SDS011;34770;49.272;11.070;2023-02-24T16:17:57;18.48;;;10.18;;
16029;SDS011;34770;49.272;11.070;2023-02-24T16:20:27;14.50;;;9.18;;
16029;SDS011;34770;49.272;11.070;2023-02-24T16:23:00;19.63;;;10.38;;
16029;SDS011;34770;49.272;11.070;2023-02-24T16:25:28;18.17;;;11.07;;
16029;SDS011;34770;49.272;11.070;2023-02-24T16:27:58;16.50;;;10.38;;
16029;SDS011;34770;49.272;11.070;2023-02-24T16:30:26;16.90;;;9.98;;
16029;SDS011;34770;49.272;11.070;2023-02-24T16:32:54;15.75;;;10.18;;
16029;SDS011;34770;49.272;11.070;2023-02-24T16:35:23;19.00;;;10.85;;
16029;SDS011;34770;49.272;11.070;2023-02-24T16:37:50;18.67;;;10.80;;
16029;SDS011;34770;49.272;11.070;2023-02-24T16:40:20;21.67;;;9.63;;
16029;SDS011;34770;49.272;11.070;2023-02-24T16:42:54;17.42;;;9.68;;
16029;SDS011;34770;49.272;11.070;2023-02-24T16:45:19;16.42;;;8.85;;
16029;SDS011;34770;49.272;11.070;2023-02-24T16:47:48;15.15;;;8.55;;
16029;SDS011;34770;49.272;11.070;2023-02-24T16:50:18;16.92;;;9.52;;
16029;SDS011;34770;49.272;11.070;2023-02-24T16:52:46;18.02;;;9.98;;
16029;SDS011;34770;49.272;11.070;2023-02-24T16:55:12;13.55;;;9.27;;
16029;SDS011;34770;49.272;11.070;2023-02-24T16:57:38;17.55;;;9.10;;
16029;SDS011;34770;49.272;11.070;2023-02-24T17:00:04;23.65;;;11.68;;